VKO weather

Vnukovo International Airport
Moscow, Moscow Oblast, Russia

Public forecast

Using degrees Celsius for public forecast. Weather courtesy of forecast.io.

Current aviation weather report (METAR) for Vnukovo International Airport

Retrieved 2019/11/15 06:30 UTC (0 seconds ago):

UUWW 150630Z 15003MPS 8000 NSC 00/M01 Q1029 R24/290050 NOSIG

Aviation forecast (TAF) for Vnukovo International Airport

Retrieved 2019/11/15 06:22 UTC (5 minutes ago):

TAF UUWW 150458Z 1506/1606 15005MPS 8000 SCT015 TX05/1512Z TNM00/1603Z BECMG 1521/1523 FEW004 BKN011